createdAt,value
2022-08-05T00:00:50.584Z,25.69
2022-08-05T00:01:52.243Z,25.65
2022-08-05T00:02:54.451Z,25.62
2022-08-05T00:03:57.084Z,25.55
2022-08-05T00:04:59.049Z,25.48
2022-08-05T00:06:05.693Z,25.46
2022-08-05T00:07:59.058Z,25.46
2022-08-05T00:08:45.127Z,25.50
2022-08-05T00:09:49.052Z,25.52
2022-08-05T00:10:50.600Z,25.52
2022-08-05T00:11:59.882Z,25.53
2022-08-05T00:13:01.629Z,25.67
2022-08-05T00:14:12.025Z,25.76
2022-08-05T00:15:56.162Z,25.74
2022-08-05T00:16:53.044Z,25.77
2022-08-05T00:17:55.304Z,25.80
2022-08-05T00:18:57.179Z,25.85
2022-08-05T00:20:03.071Z,25.86
2022-08-05T00:21:06.481Z,25.92
2022-08-05T00:22:11.282Z,25.93
2022-08-05T00:23:13.374Z,25.95
2022-08-05T00:24:24.295Z,25.98
2022-08-05T00:25:26.671Z,26.00
2022-08-05T00:26:51.692Z,25.94
2022-08-05T00:27:53.790Z,25.95
2022-08-05T00:28:56.867Z,25.96
2022-08-05T00:30:00.461Z,26.00
2022-08-05T00:31:05.644Z,26.01
2022-08-05T00:32:12.533Z,26.03
2022-08-05T00:34:54.150Z,26.02
2022-08-05T00:34:54.968Z,26.02
2022-08-05T00:36:16.594Z,26.01
2022-08-05T00:37:20.959Z,26.05
2022-08-05T00:38:28.798Z,26.02
2022-08-05T00:39:44.347Z,26.01
2022-08-05T00:40:58.580Z,25.97
2022-08-05T00:42:01.345Z,25.96
2022-08-05T00:43:07.673Z,25.95
2022-08-05T00:44:09.380Z,25.89
2022-08-05T00:45:13.488Z,25.82
2022-08-05T00:46:15.183Z,25.70
2022-08-05T00:47:17.534Z,25.64
2022-08-05T00:48:27.743Z,25.61
2022-08-05T00:49:51.301Z,25.62
2022-08-05T00:50:53.510Z,25.59
2022-08-05T00:51:55.130Z,25.61
2022-08-05T00:52:56.666Z,25.58
2022-08-05T00:54:02.432Z,25.61
2022-08-05T00:55:06.617Z,25.64
2022-08-05T00:56:08.295Z,25.64
2022-08-05T00:57:09.925Z,25.66
2022-08-05T00:58:12.970Z,25.65
2022-08-05T00:59:14.839Z,25.65
2022-08-05T01:00:16.985Z,25.65
2022-08-05T01:01:42.191Z,25.65
2022-08-05T01:02:39.993Z,25.57
2022-08-05T01:03:42.136Z,25.54
2022-08-05T01:04:43.643Z,25.57
2022-08-05T01:05:45.144Z,25.57
2022-08-05T01:06:48.901Z,25.56
2022-08-05T01:08:30.422Z,25.55
2022-08-05T01:09:14.693Z,25.36
2022-08-05T01:10:25.805Z,25.35
2022-08-05T01:11:36.935Z,25.37
2022-08-05T01:13:03.211Z,25.36
2022-08-05T01:14:15.477Z,25.32
2022-08-05T01:15:36.178Z,25.34
2022-08-05T01:16:44.220Z,25.36
2022-08-05T01:17:53.986Z,25.41
2022-08-05T01:19:00.994Z,25.44
2022-08-05T01:20:11.643Z,25.45
2022-08-05T01:21:38.325Z,25.44
2022-08-05T01:22:58.652Z,25.40
2022-08-05T01:24:16.289Z,25.44
2022-08-05T01:25:39.891Z,25.42
2022-08-05T01:26:59.490Z,25.42
2022-08-05T01:28:15.547Z,25.40
2022-08-05T01:29:23.137Z,25.36
2022-08-05T01:30:33.742Z,25.38
2022-08-05T01:31:44.930Z,25.38
2022-08-05T01:32:49.564Z,25.38
2022-08-05T01:33:56.862Z,25.38
2022-08-05T01:35:00.910Z,25.37
2022-08-05T01:36:12.914Z,25.40
2022-08-05T01:37:28.809Z,25.40
2022-08-05T01:38:32.643Z,25.28
2022-08-05T01:39:47.191Z,25.27
2022-08-05T01:40:50.374Z,25.27
2022-08-05T01:41:56.015Z,25.27
2022-08-05T01:43:00.638Z,25.35
2022-08-05T01:44:09.729Z,25.34
2022-08-05T01:45:14.138Z,25.28
2022-08-05T01:46:43.161Z,25.30
2022-08-05T01:47:43.674Z,25.17
2022-08-05T01:48:49.646Z,25.17
2022-08-05T01:50:01.641Z,25.11
2022-08-05T01:51:12.469Z,25.06
2022-08-05T01:52:17.878Z,25.02
2022-08-05T01:53:42.188Z,25.00
2022-08-05T01:54:48.743Z,25.06
2022-08-05T01:55:58.812Z,25.03
2022-08-05T01:58:10.983Z,25.01
2022-08-05T01:58:40.852Z,24.99
2022-08-05T01:59:49.570Z,24.92
2022-08-05T02:00:51.935Z,24.93
2022-08-05T02:01:56.537Z,24.92
2022-08-05T02:03:05.861Z,24.92
2022-08-05T02:04:10.269Z,24.90
2022-08-05T02:05:14.569Z,24.81
2022-08-05T02:06:37.090Z,24.89
2022-08-05T02:07:40.274Z,24.81
2022-08-05T02:08:54.920Z,24.79
2022-08-05T02:10:02.000Z,24.77
2022-08-05T02:11:08.207Z,24.73
2022-08-05T02:12:20.300Z,24.74
2022-08-05T02:13:28.290Z,24.74
2022-08-05T02:15:03.349Z,24.71
2022-08-05T02:16:16.396Z,24.68
2022-08-05T02:18:27.525Z,24.65
2022-08-05T02:18:50.752Z,24.63
2022-08-05T02:19:58.802Z,24.59
2022-08-05T02:21:13.241Z,24.61
2022-08-05T02:22:26.443Z,24.60
2022-08-05T02:23:33.730Z,24.54
2022-08-05T02:24:38.970Z,24.57
2022-08-05T02:25:49.573Z,24.51
2022-08-05T02:26:59.883Z,24.48
2022-08-05T02:28:14.079Z,24.36
2022-08-05T02:29:24.236Z,24.43
2022-08-05T02:30:51.633Z,24.58
2022-08-05T02:31:58.057Z,24.61
2022-08-05T02:33:02.145Z,24.62
2022-08-05T02:34:09.350Z,24.58
2022-08-05T02:35:19.100Z,24.57
2022-08-05T02:36:32.214Z,24.39
2022-08-05T02:37:35.054Z,24.29
2022-08-05T02:38:37.666Z,24.33
2022-08-05T02:39:41.266Z,24.11
2022-08-05T02:40:44.732Z,24.04
2022-08-05T02:42:00.781Z,24.03
2022-08-05T02:43:04.689Z,23.99
2022-08-05T02:44:11.176Z,23.87
2022-08-05T02:45:16.230Z,23.94
2022-08-05T02:46:25.178Z,23.92
2022-08-05T02:47:58.340Z,23.11
2022-08-05T02:48:53.811Z,23.15
2022-08-05T02:49:55.642Z,23.30
2022-08-05T02:50:59.796Z,23.09
2022-08-05T02:52:03.689Z,23.09
2022-08-05T02:53:06.427Z,23.23
2022-08-05T02:54:36.019Z,23.21
2022-08-05T02:55:54.746Z,23.19
2022-08-05T02:56:58.769Z,23.12
2022-08-05T02:58:10.337Z,23.03
2022-08-05T02:59:17.484Z,22.97
2022-08-05T03:00:20.131Z,22.96
2022-08-05T03:01:25.156Z,22.62
2022-08-05T03:02:31.570Z,22.49
2022-08-05T03:04:03.329Z,22.68
2022-08-05T03:05:15.078Z,22.56
2022-08-05T03:06:55.387Z,22.51
2022-08-05T03:08:04.603Z,22.63
2022-08-05T03:09:02.914Z,22.41
2022-08-05T03:10:06.993Z,22.13
2022-08-05T03:11:57.556Z,22.31
2022-08-05T03:12:39.564Z,22.37
2022-08-05T03:13:51.438Z,22.37
2022-08-05T03:15:06.729Z,22.16
2022-08-05T03:16:08.961Z,21.97
2022-08-05T03:17:12.154Z,21.99
2022-08-05T03:18:14.601Z,22.02
2022-08-05T03:19:33.254Z,22.06
2022-08-05T03:20:36.294Z,22.38
2022-08-05T03:21:41.672Z,22.44
2022-08-05T03:22:50.813Z,22.57
2022-08-05T03:23:52.747Z,22.66
2022-08-05T03:24:55.716Z,22.67
2022-08-05T03:26:31.378Z,22.72
2022-08-05T03:27:39.177Z,22.78
2022-08-05T03:28:41.237Z,22.58
2022-08-05T03:29:45.165Z,22.74
2022-08-05T03:31:05.103Z,22.80
2022-08-05T03:32:08.749Z,22.83
2022-08-05T03:33:11.900Z,22.80
2022-08-05T03:34:14.173Z,22.86
2022-08-05T03:35:15.828Z,22.83
2022-08-05T03:36:17.531Z,22.84
2022-08-05T03:37:41.650Z,22.86
2022-08-05T03:38:52.545Z,22.87
2022-08-05T03:39:59.210Z,22.90
2022-08-05T03:41:08.547Z,22.87
2022-08-05T03:42:12.545Z,22.86
2022-08-05T03:43:58.316Z,22.79
2022-08-05T03:44:36.918Z,22.74
2022-08-05T03:45:55.297Z,22.76
2022-08-05T03:46:59.948Z,22.72
2022-08-05T03:48:01.587Z,22.65
2022-08-05T03:49:06.973Z,22.59
2022-08-05T03:50:10.079Z,22.46
2022-08-05T03:52:39.019Z,22.45
2022-08-05T03:54:53.273Z,22.46
2022-08-05T03:55:52.722Z,22.33
2022-08-05T03:56:09.283Z,22.27
2022-08-05T03:57:00.257Z,22.35
2022-08-05T03:58:03.475Z,22.31
2022-08-05T03:59:09.873Z,22.26
2022-08-05T04:00:15.876Z,22.28
2022-08-05T04:01:21.135Z,22.26
2022-08-05T04:02:37.544Z,22.32
2022-08-05T04:04:09.280Z,22.26
2022-08-05T04:05:10.193Z,22.25
2022-08-05T04:06:12.331Z,22.25
2022-08-05T04:07:14.430Z,22.25
2022-08-05T04:08:35.207Z,22.31
2022-08-05T04:09:38.636Z,22.28
2022-08-05T04:10:55.464Z,22.24
2022-08-05T04:11:57.302Z,22.32
2022-08-05T04:13:00.560Z,22.22
2022-08-05T04:14:05.838Z,22.02
2022-08-05T04:15:08.303Z,21.88
2022-08-05T04:16:25.508Z,21.77
2022-08-05T04:17:55.705Z,21.48
2022-08-05T04:18:57.879Z,21.40
2022-08-05T04:19:59.617Z,21.32
2022-08-05T04:21:06.780Z,21.43
2022-08-05T04:22:12.320Z,21.38
2022-08-05T04:23:16.111Z,21.38
2022-08-05T04:24:19.624Z,21.61
2022-08-05T04:25:56.887Z,21.74
2022-08-05T04:26:45.524Z,21.72
2022-08-05T04:27:57.284Z,21.61
2022-08-05T04:28:59.075Z,21.57
2022-08-05T04:30:03.716Z,21.43
2022-08-05T04:31:08.267Z,21.36
2022-08-05T04:32:12.286Z,21.24
2022-08-05T04:33:15.493Z,21.18
2022-08-05T04:34:32.384Z,21.07
2022-08-05T04:36:15.939Z,21.13
2022-08-05T04:36:57.594Z,21.11
2022-08-05T04:38:02.037Z,21.09
2022-08-05T04:39:08.140Z,21.09
2022-08-05T04:40:11.302Z,21.07
2022-08-05T04:41:12.953Z,21.05
2022-08-05T04:42:15.222Z,21.06
2022-08-05T04:43:16.938Z,21.03
2022-08-05T04:44:21.309Z,21.06
2022-08-05T04:45:48.434Z,21.14
2022-08-05T04:46:50.264Z,21.08
2022-08-05T04:47:54.349Z,21.17
2022-08-05T04:48:59.102Z,21.07
2022-08-05T04:50:11.453Z,21.13
2022-08-05T04:51:13.328Z,21.06
2022-08-05T04:52:16.667Z,21.06
2022-08-05T04:53:20.187Z,21.07
2022-08-05T04:54:22.551Z,21.06
2022-08-05T04:56:05.035Z,21.00
2022-08-05T04:56:47.215Z,20.90
2022-08-05T04:57:54.144Z,20.92
2022-08-05T04:58:56.488Z,20.80
2022-08-05T04:59:58.644Z,20.92
2022-08-05T05:01:00.911Z,20.93
2022-08-05T05:02:34.891Z,20.94
2022-08-05T05:03:23.928Z,20.88
2022-08-05T05:04:25.542Z,20.89
2022-08-05T05:05:29.132Z,20.98
2022-08-05T05:06:39.103Z,20.95
2022-08-05T05:07:56.203Z,20.96
2022-08-05T05:09:02.293Z,20.94
2022-08-05T05:10:07.590Z,21.03
2022-08-05T05:11:09.110Z,20.93
2022-08-05T05:12:10.627Z,20.96
2022-08-05T05:13:15.100Z,21.07
2022-08-05T05:14:16.642Z,20.62
2022-08-05T05:15:57.341Z,20.74
2022-08-05T05:16:39.992Z,20.78
2022-08-05T05:17:56.899Z,20.66
2022-08-05T05:19:18.550Z,20.88
2022-08-05T05:20:21.104Z,21.09
2022-08-05T05:21:28.117Z,21.02
2022-08-05T05:22:34.760Z,20.90
2022-08-05T05:24:03.781Z,20.93
2022-08-05T05:25:16.630Z,20.99
2022-08-05T05:26:18.739Z,21.03
2022-08-05T05:27:20.240Z,20.95
2022-08-05T05:28:22.923Z,20.99
2022-08-05T05:30:03.586Z,20.99
2022-08-05T05:30:49.698Z,20.99
2022-08-05T05:31:51.497Z,21.01
2022-08-05T05:32:54.398Z,21.03
2022-08-05T05:33:59.183Z,20.93
2022-08-05T05:35:04.334Z,21.00
2022-08-05T05:36:08.246Z,20.98
2022-08-05T05:37:13.025Z,21.00
2022-08-05T05:38:27.063Z,20.83
2022-08-05T05:39:34.374Z,20.85
2022-08-05T05:40:37.655Z,20.90
2022-08-05T05:41:42.970Z,20.92
2022-08-05T05:42:56.299Z,20.78
2022-08-05T05:44:00.604Z,20.81
2022-08-05T05:45:02.908Z,20.83
2022-08-05T05:46:05.484Z,20.76
2022-08-05T05:47:13.174Z,20.76
2022-08-05T05:48:27.762Z,20.74
2022-08-05T05:49:29.469Z,20.86
2022-08-05T05:50:31.303Z,20.87
2022-08-05T05:51:49.645Z,20.74
2022-08-05T05:52:51.642Z,20.98
2022-08-05T05:53:57.260Z,20.98
2022-08-05T05:55:07.436Z,21.05
2022-08-05T05:56:26.008Z,21.09
2022-08-05T05:57:43.023Z,21.14
2022-08-05T05:58:54.659Z,21.02
2022-08-05T05:59:57.405Z,21.15
2022-08-05T06:01:12.263Z,21.22
2022-08-05T06:02:15.043Z,21.22
2022-08-05T06:03:40.757Z,21.24
2022-08-05T06:04:39.869Z,21.23
2022-08-05T06:05:41.448Z,21.35
2022-08-05T06:06:47.392Z,21.14
2022-08-05T06:08:01.254Z,21.07
2022-08-05T06:09:05.486Z,21.33
2022-08-05T06:10:10.631Z,21.10
2022-08-05T06:11:13.448Z,21.29
2022-08-05T06:12:15.062Z,21.16
2022-08-05T06:13:17.156Z,21.14
2022-08-05T06:14:19.281Z,21.05
2022-08-05T06:15:24.119Z,21.12
2022-08-05T06:16:30.168Z,21.23
2022-08-05T06:17:52.815Z,21.25
2022-08-05T06:18:55.914Z,21.05
2022-08-05T06:20:01.733Z,21.16
2022-08-05T06:21:03.626Z,21.26
2022-08-05T06:22:09.748Z,21.29
2022-08-05T06:23:11.292Z,21.24
2022-08-05T06:24:14.777Z,21.28
2022-08-05T06:25:24.479Z,21.31
2022-08-05T06:26:40.000Z,21.40
2022-08-05T06:28:11.583Z,21.43
2022-08-05T06:29:25.318Z,21.42
2022-08-05T06:30:36.356Z,21.43
2022-08-05T06:31:38.236Z,21.16
2022-08-05T06:32:43.545Z,21.30
2022-08-05T06:34:07.037Z,21.42
2022-08-05T06:35:15.473Z,21.71
2022-08-05T06:36:53.706Z,21.85
2022-08-05T06:37:57.728Z,21.72
2022-08-05T06:39:01.100Z,21.89
2022-08-05T06:40:03.209Z,22.09
2022-08-05T06:41:07.844Z,22.19
2022-08-05T06:42:09.814Z,22.60
2022-08-05T06:43:59.693Z,22.62
2022-08-05T06:44:35.237Z,22.55
2022-08-05T06:46:02.882Z,22.64
2022-08-05T06:46:58.398Z,22.71
2022-08-05T06:48:37.285Z,23.01
2022-08-05T06:50:00.282Z,22.79
2022-08-05T06:50:47.497Z,22.97
2022-08-05T06:51:51.522Z,22.86
2022-08-05T06:53:04.047Z,22.98
2022-08-05T06:54:19.018Z,23.04
2022-08-05T06:55:21.006Z,23.21
2022-08-05T06:56:34.380Z,22.91
2022-08-05T06:58:02.663Z,22.32
2022-08-05T06:58:58.027Z,22.52
2022-08-05T06:59:59.556Z,22.40
2022-08-05T07:01:05.804Z,22.73
2022-08-05T07:02:07.619Z,22.34
2022-08-05T07:03:09.786Z,22.46
2022-08-05T07:04:13.991Z,22.80
2022-08-05T07:05:18.741Z,23.06
2022-08-05T07:06:21.114Z,23.31
2022-08-05T07:07:24.087Z,23.11
2022-08-05T07:08:37.242Z,23.11
2022-08-05T07:09:43.382Z,23.33
2022-08-05T07:10:52.497Z,23.09
2022-08-05T07:11:56.428Z,22.98
2022-08-05T07:13:03.445Z,23.37
2022-08-05T07:14:05.054Z,23.49
2022-08-05T07:15:08.854Z,23.31
2022-08-05T07:16:12.136Z,23.43
2022-08-05T07:18:08.298Z,23.33
2022-08-05T07:18:53.482Z,23.08
2022-08-05T07:21:16.386Z,22.61
2022-08-05T07:22:29.134Z,22.35
2022-08-05T07:23:31.882Z,22.29
2022-08-05T07:24:35.101Z,22.74
2022-08-05T07:25:55.984Z,22.41
2022-08-05T07:26:59.795Z,22.70
2022-08-05T07:28:08.232Z,22.47
2022-08-05T07:29:13.391Z,22.70
2022-08-05T07:30:23.909Z,22.37
2022-08-05T07:31:40.883Z,22.38
2022-08-05T07:32:53.597Z,22.34
2022-08-05T07:33:55.215Z,22.24
2022-08-05T07:35:01.423Z,22.16
2022-08-05T07:36:22.912Z,22.39
2022-08-05T07:37:25.265Z,22.21
2022-08-05T07:38:43.694Z,22.29
2022-08-05T07:40:26.480Z,22.74
2022-08-05T07:42:09.069Z,22.66
2022-08-05T07:42:33.927Z,22.87
2022-08-05T07:43:37.993Z,22.69
2022-08-05T07:44:39.508Z,22.54
2022-08-05T07:45:57.192Z,22.72
2022-08-05T07:47:00.020Z,22.80
2022-08-05T07:48:02.019Z,22.92
2022-08-05T07:49:06.142Z,23.13
2022-08-05T07:50:10.164Z,23.39
2022-08-05T07:51:23.288Z,23.24
2022-08-05T07:52:37.771Z,22.76
2022-08-05T07:53:50.292Z,22.98
2022-08-05T07:54:52.726Z,22.61
2022-08-05T07:56:05.777Z,22.83
2022-08-05T07:57:17.720Z,23.42
2022-08-05T07:58:57.839Z,23.40
2022-08-05T07:59:53.626Z,23.16
2022-08-05T08:00:55.437Z,23.08
2022-08-05T08:01:57.639Z,23.22
2022-08-05T08:03:14.756Z,23.44
2022-08-05T08:04:17.322Z,23.71
2022-08-05T08:05:39.528Z,23.92
2022-08-05T08:06:41.674Z,24.14
2022-08-05T08:08:00.201Z,23.76
2022-08-05T08:09:02.094Z,24.02
2022-08-05T08:10:05.731Z,24.14
2022-08-05T08:11:08.972Z,24.45
2022-08-05T08:12:35.236Z,24.71
2022-08-05T08:13:43.003Z,24.46
2022-08-05T08:14:51.232Z,23.90
2022-08-05T08:16:34.458Z,23.75
2022-08-05T08:17:16.202Z,23.71
2022-08-05T08:18:18.092Z,23.44
2022-08-05T08:20:22.361Z,23.71
2022-08-05T08:21:03.231Z,24.43
2022-08-05T08:22:05.517Z,24.44
2022-08-05T08:24:00.011Z,24.34
2022-08-05T08:24:51.547Z,24.21
2022-08-05T08:25:59.714Z,24.09
2022-08-05T08:27:06.905Z,24.08
2022-08-05T08:28:18.062Z,24.18
2022-08-05T08:29:45.310Z,24.40
2022-08-05T08:30:47.704Z,24.55
2022-08-05T08:31:52.003Z,24.44
2022-08-05T08:32:53.535Z,24.16
2022-08-05T08:33:55.109Z,24.67
2022-08-05T08:34:57.702Z,25.05
2022-08-05T08:36:18.430Z,25.16
2022-08-05T08:37:21.039Z,24.76
2022-08-05T08:38:35.574Z,24.85
2022-08-05T08:39:38.147Z,24.71
2022-08-05T08:40:51.530Z,25.02
2022-08-05T08:42:00.115Z,24.90
2022-08-05T08:44:56.503Z,24.94
2022-08-05T08:45:19.194Z,25.12
2022-08-05T08:45:54.023Z,25.07
2022-08-05T08:46:56.916Z,25.24
2022-08-05T08:48:10.478Z,25.14
2022-08-05T08:50:12.841Z,25.00
2022-08-05T08:51:03.977Z,25.16
2022-08-05T08:52:13.670Z,25.11
2022-08-05T08:53:17.420Z,25.19
2022-08-05T08:54:20.992Z,25.27
2022-08-05T08:55:32.185Z,25.29
2022-08-05T08:56:51.024Z,24.69
2022-08-05T08:57:58.041Z,25.06
2022-08-05T08:59:00.999Z,25.18
2022-08-05T09:00:04.933Z,24.99
2022-08-05T09:01:10.892Z,24.69
2022-08-05T09:02:20.818Z,25.23
2022-08-05T09:03:22.606Z,25.22
2022-08-05T09:04:30.704Z,25.36
2022-08-05T09:05:38.991Z,25.50
2022-08-05T09:06:54.223Z,25.39
2022-08-05T09:07:57.823Z,25.25
2022-08-05T09:09:01.951Z,25.39
2022-08-05T09:10:04.031Z,25.09
2022-08-05T09:11:07.382Z,25.09
2022-08-05T09:12:20.570Z,25.20
2022-08-05T09:13:31.942Z,25.24
2022-08-05T09:14:56.546Z,25.00
2022-08-05T09:16:03.163Z,24.73
2022-08-05T09:17:08.183Z,24.83
2022-08-05T09:18:13.430Z,25.23
2022-08-05T09:19:15.236Z,25.15
2022-08-05T09:20:36.435Z,25.05
2022-08-05T09:22:23.040Z,25.54
2022-08-05T09:23:09.799Z,25.28
2022-08-05T09:24:20.889Z,25.31
2022-08-05T09:26:02.193Z,25.38
2022-08-05T09:26:47.874Z,25.75
2022-08-05T09:28:04.668Z,25.92
2022-08-05T09:29:09.075Z,25.97
2022-08-05T09:30:16.460Z,25.66
2022-08-05T09:31:44.060Z,26.11
2022-08-05T09:32:46.673Z,25.88
2022-08-05T09:33:55.285Z,25.99
2022-08-05T09:34:57.780Z,25.72
2022-08-05T09:36:11.582Z,25.61
2022-08-05T09:37:19.117Z,25.59
2022-08-05T09:38:55.927Z,25.76
2022-08-05T09:39:58.863Z,25.86
2022-08-05T09:41:05.559Z,25.88
2022-08-05T09:42:11.413Z,25.70
2022-08-05T09:43:28.195Z,25.90
2022-08-05T09:44:50.467Z,26.00
2022-08-05T09:46:07.887Z,26.08
2022-08-05T09:47:15.633Z,26.03
2022-08-05T09:48:22.083Z,25.92
2022-08-05T09:49:54.785Z,26.03
2022-08-05T09:50:57.538Z,26.04
2022-08-05T09:51:59.066Z,26.27
2022-08-05T09:53:00.580Z,26.72
2022-08-05T09:54:02.746Z,26.91
2022-08-05T09:55:55.584Z,26.83
2022-08-05T09:56:29.467Z,26.85
2022-08-05T09:57:39.636Z,26.38
2022-08-05T09:58:56.015Z,26.33
2022-08-05T09:59:58.901Z,26.62
2022-08-05T10:01:13.260Z,27.08
2022-08-05T10:02:33.613Z,27.06
2022-08-05T10:03:56.889Z,26.81
2022-08-05T10:05:04.079Z,26.62
2022-08-05T10:06:15.655Z,26.18
2022-08-05T10:07:20.781Z,26.32
2022-08-05T10:08:39.353Z,26.53
2022-08-05T10:10:13.833Z,26.36
2022-08-05T10:11:17.526Z,26.98
2022-08-05T10:12:33.437Z,27.08
2022-08-05T10:13:45.799Z,27.31
2022-08-05T10:14:50.114Z,26.84
2022-08-05T10:15:56.379Z,27.05
2022-08-05T10:17:36.964Z,27.30
2022-08-05T10:18:37.346Z,26.93
2022-08-05T10:20:02.794Z,26.82
2022-08-05T10:21:08.361Z,26.80
2022-08-05T10:22:15.666Z,26.59
2022-08-05T10:23:55.567Z,26.54
2022-08-05T10:24:54.444Z,26.56
2022-08-05T10:25:56.701Z,26.63
2022-08-05T10:27:00.311Z,26.89
2022-08-05T10:28:13.723Z,27.46
2022-08-05T10:30:41.068Z,27.62
2022-08-05T10:32:53.122Z,27.89
2022-08-05T10:32:53.843Z,27.76
2022-08-05T10:33:36.727Z,28.29
2022-08-05T10:34:41.938Z,27.95
2022-08-05T10:35:44.345Z,28.06
2022-08-05T10:36:46.573Z,28.12
2022-08-05T10:37:48.949Z,27.89
2022-08-05T10:39:00.557Z,27.20
2022-08-05T10:40:18.236Z,27.15
2022-08-05T10:41:28.089Z,27.71
2022-08-05T10:42:52.121Z,27.83
2022-08-05T10:43:59.520Z,28.05
2022-08-05T10:45:01.900Z,27.54
2022-08-05T10:46:24.043Z,27.59
2022-08-05T10:47:32.514Z,27.76
2022-08-05T10:48:52.807Z,28.18
2022-08-05T10:50:35.249Z,28.37
2022-08-05T10:51:29.128Z,28.36
2022-08-05T10:52:39.290Z,28.61
2022-08-05T10:53:55.592Z,27.54
2022-08-05T10:55:05.253Z,27.12
2022-08-05T10:56:21.031Z,26.92
2022-08-05T10:57:31.747Z,27.91
2022-08-05T10:58:47.818Z,27.78
2022-08-05T11:00:12.061Z,27.71
2022-08-05T11:01:54.823Z,27.81
2022-08-05T11:03:23.063Z,27.74
2022-08-05T11:04:30.895Z,27.57
2022-08-05T11:05:33.514Z,27.51
2022-08-05T11:06:56.076Z,27.39
2022-08-05T11:08:02.916Z,27.36
2022-08-05T11:09:18.507Z,28.14
2022-08-05T11:10:27.609Z,28.48
2022-08-05T11:11:44.675Z,28.67
2022-08-05T11:12:55.675Z,28.57
2022-08-05T11:13:58.553Z,28.89
2022-08-05T11:15:19.130Z,29.18
2022-08-05T11:16:23.392Z,29.06
2022-08-05T11:17:59.417Z,29.03
2022-08-05T11:20:16.825Z,28.83
2022-08-05T11:20:48.457Z,28.74
2022-08-05T11:21:49.983Z,28.47
2022-08-05T11:22:53.969Z,28.60
2022-08-05T11:24:30.014Z,28.47
2022-08-05T11:26:04.789Z,28.79
2022-08-05T11:27:45.813Z,28.75
2022-08-05T11:28:53.313Z,29.05
2022-08-05T11:29:59.429Z,29.03
2022-08-05T11:31:54.230Z,29.18
2022-08-05T11:32:50.877Z,29.16
2022-08-05T11:33:56.313Z,29.03
2022-08-05T11:35:00.155Z,29.15
2022-08-05T11:36:07.972Z,29.20
2022-08-05T11:38:28.002Z,29.11
2022-08-05T11:38:51.959Z,28.83
2022-08-05T11:40:00.528Z,28.74
2022-08-05T11:41:34.349Z,29.21
2022-08-05T11:42:28.377Z,29.31
2022-08-05T11:43:58.459Z,29.18
2022-08-05T11:45:00.740Z,28.87
2022-08-05T11:46:15.318Z,28.79
2022-08-05T11:47:48.903Z,28.82
2022-08-05T11:48:46.288Z,29.00
2022-08-05T11:49:50.957Z,29.39
2022-08-05T11:50:54.057Z,28.92
2022-08-05T11:51:57.577Z,29.17
2022-08-05T11:53:04.584Z,29.03
2022-08-05T11:54:13.888Z,29.31
2022-08-05T11:55:15.904Z,29.25
2022-08-05T11:56:17.642Z,28.87
2022-08-05T11:57:25.613Z,29.09
2022-08-05T11:58:30.551Z,29.34
2022-08-05T11:59:32.540Z,29.51
2022-08-05T12:01:01.949Z,29.63
2022-08-05T12:02:23.757Z,29.86
2022-08-05T12:03:31.585Z,29.88
2022-08-05T12:04:43.112Z,29.44
2022-08-05T12:06:02.676Z,29.44
2022-08-05T12:07:06.872Z,29.47
2022-08-05T12:08:11.855Z,29.84
2022-08-05T12:09:52.747Z,29.86
2022-08-05T12:10:49.661Z,29.94
2022-08-05T12:11:54.411Z,29.49
2022-08-05T12:13:03.903Z,29.37
2022-08-05T12:14:18.729Z,29.71
2022-08-05T12:15:20.985Z,29.39
2022-08-05T12:16:46.484Z,29.40
2022-08-05T12:18:03.878Z,29.72
2022-08-05T12:20:26.352Z,29.69
2022-08-05T12:20:41.544Z,29.46
2022-08-05T12:21:45.588Z,29.06
2022-08-05T12:22:48.849Z,29.39
2022-08-05T12:23:57.275Z,29.64
2022-08-05T12:25:01.865Z,29.18
2022-08-05T12:26:03.484Z,29.38
2022-08-05T12:27:09.699Z,29.57
2022-08-05T12:28:33.947Z,29.47
2022-08-05T12:29:37.971Z,29.28
2022-08-05T12:30:45.908Z,29.28
2022-08-05T12:31:53.442Z,29.31
2022-08-05T12:32:56.405Z,29.58
2022-08-05T12:33:58.390Z,29.40
2022-08-05T12:35:00.205Z,29.53
2022-08-05T12:36:08.343Z,29.61
2022-08-05T12:37:16.991Z,29.69
2022-08-05T12:38:22.325Z,29.75
2022-08-05T12:39:37.519Z,29.97
2022-08-05T12:40:43.577Z,29.84
2022-08-05T12:42:09.517Z,29.48
2022-08-05T12:43:20.654Z,29.51
2022-08-05T12:44:33.837Z,29.46
2022-08-05T12:45:42.515Z,29.01
2022-08-05T12:46:53.974Z,29.03
2022-08-05T12:48:01.528Z,29.12
2022-08-05T12:49:17.045Z,28.98
2022-08-05T12:50:21.123Z,29.00
2022-08-05T12:52:14.160Z,28.91
2022-08-05T12:52:55.418Z,28.88
2022-08-05T12:54:02.725Z,28.50
2022-08-05T12:55:16.905Z,28.70
2022-08-05T12:56:35.297Z,28.94
2022-08-05T12:58:50.804Z,28.89
2022-08-05T12:59:20.997Z,29.16
2022-08-05T13:02:00.256Z,29.10
2022-08-05T13:02:01.798Z,28.90
2022-08-05T13:03:12.341Z,29.22
2022-08-05T13:04:20.906Z,28.98
2022-08-05T13:05:23.146Z,29.17
2022-08-05T13:06:26.246Z,29.13
2022-08-05T13:07:57.306Z,28.98
2022-08-05T13:08:52.706Z,28.93
2022-08-05T13:09:57.965Z,28.66
2022-08-05T13:11:00.755Z,28.80
2022-08-05T13:12:04.420Z,28.83
2022-08-05T13:13:09.706Z,28.72
2022-08-05T13:14:36.917Z,28.70
2022-08-05T13:15:49.233Z,28.46
2022-08-05T13:16:56.352Z,28.67
2022-08-05T13:17:59.336Z,28.51
2022-08-05T13:19:01.620Z,28.64
2022-08-05T13:20:05.570Z,29.05
2022-08-05T13:21:08.560Z,29.16
2022-08-05T13:22:12.219Z,29.14
2022-08-05T13:23:13.843Z,29.18
2022-08-05T13:24:44.989Z,29.40
2022-08-05T13:25:52.744Z,29.29
2022-08-05T13:27:01.424Z,29.24
2022-08-05T13:28:03.490Z,29.60
2022-08-05T13:29:05.469Z,29.54
2022-08-05T13:30:34.571Z,29.81
2022-08-05T13:31:34.072Z,29.97
2022-08-05T13:32:53.708Z,29.84
2022-08-05T13:34:23.399Z,29.60
2022-08-05T13:35:22.250Z,29.40
2022-08-05T13:36:33.399Z,29.75
2022-08-05T13:37:35.426Z,29.59
2022-08-05T13:38:38.256Z,29.66
2022-08-05T13:40:16.783Z,29.96
2022-08-05T13:41:07.480Z,29.85
2022-08-05T13:42:14.649Z,29.64
2022-08-05T13:43:21.959Z,29.87
2022-08-05T13:44:23.815Z,30.05
2022-08-05T13:45:33.990Z,29.99
2022-08-05T13:48:09.767Z,29.62
2022-08-05T13:49:23.382Z,29.69
2022-08-05T13:50:25.013Z,29.52
2022-08-05T13:51:29.902Z,29.62
2022-08-05T13:52:42.091Z,29.77
2022-08-05T13:53:47.720Z,29.77
2022-08-05T13:54:53.215Z,29.62
2022-08-05T13:55:58.896Z,29.73
2022-08-05T13:57:04.962Z,29.59
2022-08-05T13:58:07.890Z,29.88
2022-08-05T13:59:20.132Z,29.74
2022-08-05T14:00:26.778Z,29.91
2022-08-05T14:01:36.391Z,30.06
2022-08-05T14:02:48.383Z,30.06
2022-08-05T14:03:50.500Z,30.07
2022-08-05T14:04:52.112Z,30.34
2022-08-05T14:06:25.222Z,30.54
2022-08-05T14:07:25.577Z,30.61
2022-08-05T14:08:38.006Z,30.65
2022-08-05T14:09:42.994Z,30.80
2022-08-05T14:10:48.548Z,30.49
2022-08-05T14:12:03.937Z,30.36
2022-08-05T14:13:12.968Z,30.46
2022-08-05T14:14:25.505Z,30.39
2022-08-05T14:16:04.342Z,30.39
2022-08-05T14:16:55.316Z,30.30
2022-08-05T14:17:59.544Z,29.99
2022-08-05T14:19:04.493Z,30.09
2022-08-05T14:20:07.912Z,30.14
2022-08-05T14:21:23.903Z,30.25
2022-08-05T14:22:34.327Z,29.77
2022-08-05T14:23:36.814Z,29.69
2022-08-05T14:24:38.929Z,29.86
2022-08-05T14:25:45.092Z,30.22
2022-08-05T14:27:08.483Z,30.20
2022-08-05T14:28:08.872Z,30.19
2022-08-05T14:29:29.008Z,30.21
2022-08-05T14:30:32.991Z,30.15
2022-08-05T14:32:02.220Z,29.83
2022-08-05T14:32:57.114Z,29.94
2022-08-05T14:34:00.854Z,29.46
2022-08-05T14:35:03.505Z,29.71
2022-08-05T14:36:05.404Z,29.86
2022-08-05T14:37:06.975Z,29.88
2022-08-05T14:38:08.519Z,29.43
2022-08-05T14:39:30.972Z,29.35
2022-08-05T14:40:51.286Z,29.55
2022-08-05T14:42:21.344Z,29.63
2022-08-05T14:43:59.127Z,29.75
2022-08-05T14:44:46.668Z,29.84
2022-08-05T14:45:48.217Z,29.63
2022-08-05T14:46:49.767Z,29.53
2022-08-05T14:48:04.070Z,29.60
2022-08-05T14:49:08.146Z,29.82
2022-08-05T14:50:18.256Z,29.99
2022-08-05T14:51:20.754Z,29.81
2022-08-05T14:52:50.531Z,29.54
2022-08-05T14:53:45.046Z,29.49
2022-08-05T14:54:53.114Z,29.52
2022-08-05T14:55:55.013Z,29.74
2022-08-05T14:56:57.787Z,29.92
2022-08-05T14:57:59.407Z,30.00
2022-08-05T14:59:02.040Z,30.01
2022-08-05T15:00:07.849Z,29.76
2022-08-05T15:01:16.272Z,29.82
2022-08-05T15:02:19.104Z,29.93
2022-08-05T15:03:22.858Z,29.80
2022-08-05T15:04:27.463Z,29.67